Terminal Aerodrome Forecast
Issued by NWS

Home | Current Version | Previous Version | Text Only | Print | Product List | Glossary On
Versions: 1 2 3 4 5 6 7 8 9 10 11 12 13 14 15 16 17 18 19
000
FTUS44 KLZK 222300 RRA
TAFLIT
TAF
KLIT 222346Z 2300/2324 17005KT P6SM BKN012 OVC025
      TEMPO 2302/2304 5SM BR SCT012
     FM230400 32005KT P6SM BKN025
     FM230900 33004KT P6SM SCT025 BKN050
     FM231500 VRB03KT P6SM VCSH OVC040 PROB30 2318/2324 4SM -SHRA BR
      OVC035=

USA.gov is the U.S. government's official web portal to all federal, state and local government web resources and services.